createdAt,value
2023-01-04T00:02:58.760Z,95907
2023-01-04T00:06:23.869Z,95908
2023-01-04T00:09:49.041Z,95904
2023-01-04T00:13:14.248Z,95906
2023-01-04T00:16:39.569Z,95903
2023-01-04T00:20:04.641Z,95899
2023-01-04T00:23:29.853Z,95898
2023-01-04T00:26:55.099Z,95891
2023-01-04T00:30:20.353Z,95887
2023-01-04T00:33:45.610Z,95891
2023-01-04T00:37:10.768Z,95874
2023-01-04T00:40:36.004Z,95877
2023-01-04T00:44:01.203Z,95874
2023-01-04T00:47:26.466Z,95874
2023-01-04T00:50:51.667Z,95867
2023-01-04T00:54:16.927Z,95864
2023-01-04T00:57:42.134Z,95861
2023-01-04T01:01:07.441Z,95859
2023-01-04T01:04:32.593Z,95852
2023-01-04T01:07:57.796Z,95855
2023-01-04T01:11:23.023Z,95843
2023-01-04T01:14:48.237Z,95842
2023-01-04T01:18:13.430Z,95835
2023-01-04T01:21:38.704Z,95835
2023-01-04T01:25:03.881Z,95828
2023-01-04T01:28:29.117Z,95842
2023-01-04T01:31:54.458Z,95854
2023-01-04T01:35:19.540Z,95858
2023-01-04T01:38:44.860Z,95860
2023-01-04T01:42:09.965Z,95863
2023-01-04T01:45:35.211Z,95856
2023-01-04T01:49:00.406Z,95852
2023-01-04T01:52:25.591Z,95850
2023-01-04T01:55:50.844Z,95845
2023-01-04T01:59:16.013Z,95839
2023-01-04T02:02:41.393Z,95827
2023-01-04T02:06:06.448Z,95814
2023-01-04T02:09:31.710Z,95815
2023-01-04T02:12:56.892Z,95811
2023-01-04T02:16:22.161Z,95814
2023-01-04T02:19:47.312Z,95822
2023-01-04T02:23:12.497Z,95800
2023-01-04T02:26:37.725Z,95800
2023-01-04T02:30:02.904Z,95790
2023-01-04T02:33:28.057Z,95783
2023-01-04T02:36:53.262Z,95769
2023-01-04T02:40:18.444Z,95771
2023-01-04T02:43:43.647Z,95768
2023-01-04T02:47:08.894Z,95763
2023-01-04T02:50:34.003Z,95758
2023-01-04T02:53:59.177Z,95747
2023-01-04T02:57:24.359Z,95736
2023-01-04T03:00:49.584Z,95734
2023-01-04T03:04:14.834Z,95723
2023-01-04T03:07:40.024Z,95698
2023-01-04T03:11:05.239Z,95700
2023-01-04T03:14:31.246Z,95697
2023-01-04T03:17:55.660Z,95699
2023-01-04T03:21:20.885Z,95704
2023-01-04T03:24:46.059Z,95699
2023-01-04T03:28:11.265Z,95705
2023-01-04T03:31:36.467Z,95689
2023-01-04T03:35:01.656Z,95679
2023-01-04T03:38:26.981Z,95682
2023-01-04T03:41:52.036Z,95677
2023-01-04T03:45:17.200Z,95679
2023-01-04T03:48:42.353Z,95663
2023-01-04T03:52:07.564Z,95660
2023-01-04T03:55:32.790Z,95658
2023-01-04T03:58:57.967Z,95658
2023-01-04T04:02:23.193Z,95650
2023-01-04T04:05:48.337Z,95645
2023-01-04T04:09:13.528Z,95642
2023-01-04T04:12:38.759Z,95622
2023-01-04T04:16:04.000Z,95615
2023-01-04T04:19:29.137Z,95604
2023-01-04T04:22:54.349Z,95606
2023-01-04T04:26:19.519Z,95589
2023-01-04T04:29:44.751Z,95593
2023-01-04T04:33:09.995Z,95587
2023-01-04T04:36:35.223Z,95584
2023-01-04T04:40:00.572Z,95587
2023-01-04T04:43:25.690Z,95587
2023-01-04T04:46:50.944Z,95591
2023-01-04T04:50:16.168Z,95591
2023-01-04T04:53:41.397Z,95602
2023-01-04T04:57:06.624Z,95609
2023-01-04T05:00:32.077Z,95606
2023-01-04T05:03:57.319Z,95608
2023-01-04T05:07:22.547Z,95596
2023-01-04T05:10:47.759Z,95601
2023-01-04T05:14:12.937Z,95603
2023-01-04T05:17:38.142Z,95601
2023-01-04T05:21:03.397Z,95609
2023-01-04T05:24:28.600Z,95623
2023-01-04T05:27:53.810Z,95615
2023-01-04T05:31:19.063Z,95609
2023-01-04T05:34:44.233Z,95591
2023-01-04T05:38:09.495Z,95596
2023-01-04T05:41:34.728Z,95596
2023-01-04T05:44:59.972Z,95591
2023-01-04T05:48:25.241Z,95595
2023-01-04T05:51:50.423Z,95599
2023-01-04T05:55:15.660Z,95587
2023-01-04T05:58:40.942Z,95588
2023-01-04T06:02:06.334Z,95577
2023-01-04T06:05:31.460Z,95563
2023-01-04T06:08:56.687Z,95559
2023-01-04T06:12:22.055Z,95555
2023-01-04T06:15:47.116Z,95554
2023-01-04T06:19:12.328Z,95552
2023-01-04T06:22:37.563Z,95546
2023-01-04T06:26:02.761Z,95530
2023-01-04T06:29:28.566Z,95535
2023-01-04T06:32:53.750Z,95537
2023-01-04T06:36:19.138Z,95534
2023-01-04T06:39:44.403Z,95504
2023-01-04T06:43:09.670Z,95499
2023-01-04T06:46:34.980Z,95494
2023-01-04T06:50:00.261Z,95495
2023-01-04T06:53:25.539Z,95474
2023-01-04T06:56:50.812Z,95475
2023-01-04T07:00:16.157Z,95466
2023-01-04T07:03:41.404Z,95464
2023-01-04T07:07:06.627Z,95455
2023-01-04T07:10:31.858Z,95441
2023-01-04T07:13:57.116Z,95448
2023-01-04T07:17:26.491Z,95444
2023-01-04T07:20:47.733Z,95440
2023-01-04T07:24:13.017Z,95449
2023-01-04T07:27:38.283Z,95446
2023-01-04T07:31:03.641Z,95434
2023-01-04T07:34:28.897Z,95440
2023-01-04T07:37:58.533Z,95445
2023-01-04T07:41:19.444Z,95429
2023-01-04T07:44:44.733Z,95436
2023-01-04T07:48:10.030Z,95433
2023-01-04T07:51:35.277Z,95415
2023-01-04T07:55:00.583Z,95432
2023-01-04T07:58:25.886Z,95436
2023-01-04T08:01:51.348Z,95417
2023-01-04T08:05:16.508Z,95418
2023-01-04T08:08:41.722Z,95402
2023-01-04T08:12:07.173Z,95394
2023-01-04T08:15:32.409Z,95417
2023-01-04T08:18:57.604Z,95416
2023-01-04T08:22:22.877Z,95409
2023-01-04T08:25:48.150Z,95417
2023-01-04T08:29:13.456Z,95405
2023-01-04T08:32:38.705Z,95402
2023-01-04T08:36:03.994Z,95403
2023-01-04T08:39:29.253Z,95408
2023-01-04T08:42:54.498Z,95401
2023-01-04T08:46:19.858Z,95411
2023-01-04T08:49:45.060Z,95407
2023-01-04T08:53:10.318Z,95407
2023-01-04T08:56:35.551Z,95394
2023-01-04T09:00:00.755Z,95373
2023-01-04T09:03:26.076Z,95382
2023-01-04T09:06:51.205Z,95379
2023-01-04T09:10:16.435Z,95392
2023-01-04T09:13:41.651Z,95392
2023-01-04T09:17:06.855Z,95395
2023-01-04T09:20:32.238Z,95376
2023-01-04T09:23:57.321Z,95374
2023-01-04T09:27:22.522Z,95398
2023-01-04T09:30:47.786Z,95388
2023-01-04T09:34:15.001Z,95384
2023-01-04T09:37:38.205Z,95384
2023-01-04T09:41:03.407Z,95384
2023-01-04T09:44:46.541Z,95394
2023-01-04T09:47:53.853Z,95391
2023-01-04T09:51:19.083Z,95381
2023-01-04T09:54:44.385Z,95372
2023-01-04T09:58:09.581Z,95379
2023-01-04T10:01:34.908Z,95356
2023-01-04T10:05:00.062Z,95372
2023-01-04T10:08:25.304Z,95364
2023-01-04T10:11:50.513Z,95360
2023-01-04T10:15:15.721Z,95342
2023-01-04T10:22:06.231Z,95342
2023-01-04T10:25:31.443Z,95319
2023-01-04T10:28:56.674Z,95287
2023-01-04T10:32:21.955Z,95299
2023-01-04T10:35:47.083Z,95292
2023-01-04T10:39:12.361Z,95289
2023-01-04T10:42:37.629Z,95317
2023-01-04T10:46:02.939Z,95308
2023-01-04T10:49:28.159Z,95289
2023-01-04T10:52:53.407Z,95294
2023-01-04T10:56:24.720Z,95292
2023-01-04T10:59:44.010Z,95275
2023-01-04T11:03:09.769Z,95287
2023-01-04T11:06:34.474Z,95290
2023-01-04T11:09:59.705Z,95276
2023-01-04T11:13:25.285Z,95266
2023-01-04T11:16:50.672Z,95263
2023-01-04T11:20:15.945Z,95264
2023-01-04T11:23:41.114Z,95242
2023-01-04T11:27:06.495Z,95242
2023-01-04T11:30:31.775Z,95241
2023-01-04T11:33:57.051Z,95241
2023-01-04T11:37:22.716Z,95242
2023-01-04T11:40:47.972Z,95227
2023-01-04T11:44:13.247Z,95221
2023-01-04T11:47:38.515Z,95218
2023-01-04T11:51:03.770Z,95221
2023-01-04T11:54:29.097Z,95219
2023-01-04T11:57:54.294Z,95220
2023-01-04T12:01:19.611Z,95212
2023-01-04T12:04:44.845Z,95197
2023-01-04T12:08:10.091Z,95191
2023-01-04T12:11:35.378Z,95186
2023-01-04T12:15:00.629Z,95204
2023-01-04T12:18:25.898Z,95184
2023-01-04T12:21:51.188Z,95185
2023-01-04T12:25:16.437Z,95182
2023-01-04T12:28:41.778Z,95192
2023-01-04T12:32:07.031Z,95192
2023-01-04T12:35:32.272Z,95177
2023-01-04T12:38:57.543Z,95165
2023-01-04T12:42:22.782Z,95166
2023-01-04T12:45:48.157Z,95152
2023-01-04T12:49:13.317Z,95145
2023-01-04T12:52:55.061Z,95128
2023-01-04T12:56:03.883Z,95111
2023-01-04T12:59:29.188Z,95081
2023-01-04T13:02:54.769Z,95067
2023-01-04T13:06:19.731Z,95078
2023-01-04T13:09:48.283Z,95068
2023-01-04T13:13:10.259Z,95055
2023-01-04T13:16:35.543Z,95056
2023-01-04T13:20:00.938Z,95046
2023-01-04T13:23:26.090Z,95048
2023-01-04T13:26:51.401Z,95061
2023-01-04T13:30:16.638Z,95055
2023-01-04T13:33:41.891Z,95061
2023-01-04T13:37:07.229Z,95087
2023-01-04T13:40:32.465Z,95091
2023-01-04T13:43:58.030Z,95084
2023-01-04T13:47:23.352Z,95091
2023-01-04T13:50:48.632Z,95088
2023-01-04T13:54:13.933Z,95078
2023-01-04T13:58:04.101Z,95072
2023-01-04T14:01:29.597Z,95049
2023-01-04T14:04:54.656Z,95060
2023-01-04T14:08:19.981Z,95057
2023-01-04T14:11:45.314Z,95052
2023-01-04T14:15:10.534Z,95034
2023-01-04T14:18:35.863Z,95051
2023-01-04T14:22:01.131Z,95036
2023-01-04T14:25:26.461Z,95012
2023-01-04T14:28:51.757Z,94987
2023-01-04T15:06:10.317Z,94961
2023-01-04T15:09:35.541Z,94943
2023-01-04T15:13:00.898Z,94976
2023-01-04T15:16:26.209Z,94979
2023-01-04T15:19:51.464Z,94968
2023-01-04T15:23:16.759Z,94962
2023-01-04T15:26:42.029Z,94961
2023-01-04T15:30:07.320Z,94959
2023-01-04T15:33:32.577Z,94944
2023-01-04T15:36:57.973Z,94954
2023-01-04T15:40:23.239Z,94962
2023-01-04T15:43:48.531Z,94951
2023-01-04T15:47:13.854Z,94948
2023-01-04T15:50:39.102Z,94958
2023-01-04T15:54:04.369Z,94952
2023-01-04T15:57:29.651Z,94946
2023-01-04T16:00:59.800Z,94944
2023-01-04T16:04:20.455Z,94959
2023-01-04T16:07:45.745Z,94943
2023-01-04T16:11:10.992Z,94955
2023-01-04T16:14:36.546Z,94955
2023-01-04T16:18:01.803Z,94936
2023-01-04T16:21:27.053Z,94934
2023-01-04T16:25:22.304Z,94937
2023-01-04T16:28:17.617Z,94918
2023-01-04T16:31:43.123Z,94917
2023-01-04T16:35:08.153Z,94921
2023-01-04T16:38:33.440Z,94918
2023-01-04T16:41:58.763Z,94904
2023-01-04T16:45:24.037Z,94905
2023-01-04T16:48:49.420Z,94904
2023-01-04T16:52:14.644Z,94881
2023-01-04T16:55:40.025Z,94877
2023-01-04T16:59:05.236Z,94860
2023-01-04T17:02:30.583Z,94864
2023-01-04T17:05:55.862Z,94869
2023-01-04T17:09:21.120Z,94885
2023-01-04T17:12:48.277Z,94890
2023-01-04T17:16:11.692Z,94879
2023-01-04T17:19:36.956Z,94884
2023-01-04T17:23:02.413Z,94890
2023-01-04T17:26:27.586Z,94876
2023-01-04T17:29:53.614Z,94869
2023-01-04T17:33:18.894Z,94891
2023-01-04T17:36:44.124Z,94870
2023-01-04T17:40:09.402Z,94872
2023-01-04T17:43:34.609Z,94863
2023-01-04T17:46:59.880Z,94863
2023-01-04T17:50:26.156Z,94856
2023-01-04T17:53:51.911Z,94864
2023-01-04T17:57:18.056Z,94848
2023-01-04T18:00:44.065Z,94853
2023-01-04T18:04:10.296Z,94851
2023-01-04T18:07:35.977Z,94843
2023-01-04T18:11:08.927Z,94823
2023-01-04T18:14:27.726Z,94818
2023-01-04T18:17:54.775Z,94832
2023-01-04T18:21:28.721Z,94823
2023-01-04T18:24:46.405Z,94826
2023-01-04T18:28:12.424Z,94822
2023-01-04T18:31:38.311Z,94833
2023-01-04T18:35:04.363Z,94828
2023-01-04T18:38:30.300Z,94831
2023-01-04T18:42:47.717Z,94828
2023-01-04T18:46:13.433Z,94830
2023-01-04T18:49:40.303Z,94844
2023-01-04T18:53:07.523Z,94823
2023-01-04T18:56:34.014Z,94828
2023-01-04T19:00:00.546Z,94835
2023-01-04T19:03:27.186Z,94840
2023-01-04T19:06:53.458Z,94829
2023-01-04T19:10:20.186Z,94800
2023-01-04T19:13:46.508Z,94813
2023-01-04T19:17:12.014Z,94797
2023-01-04T19:20:37.248Z,94797
2023-01-04T19:24:02.551Z,94793
2023-01-04T19:27:27.805Z,94798
2023-01-04T19:30:53.146Z,94798
2023-01-04T19:34:18.486Z,94781
2023-01-04T19:37:43.807Z,94788
2023-01-04T19:41:09.181Z,94770
2023-01-04T19:44:34.420Z,94772
2023-01-04T19:47:59.772Z,94776
2023-01-04T19:51:25.051Z,94773
2023-01-04T19:54:51.340Z,94803
2023-01-04T19:58:16.856Z,94805
2023-01-04T20:01:42.330Z,94804
2023-01-04T20:06:01.551Z,94807
2023-01-04T20:09:26.819Z,94797
2023-01-04T20:12:52.117Z,94799
2023-01-04T20:16:17.466Z,94786
2023-01-04T20:19:42.712Z,94774
2023-01-04T20:23:08.098Z,94773
2023-01-04T20:26:33.478Z,94788
2023-01-04T20:29:58.835Z,94789
2023-01-04T20:33:24.233Z,94794
2023-01-04T20:36:49.603Z,94791
2023-01-04T20:40:14.931Z,94802
2023-01-04T20:43:40.443Z,94785
2023-01-04T20:47:05.824Z,94785
2023-01-04T20:50:31.307Z,94792
2023-01-04T20:53:56.634Z,94785
2023-01-04T20:57:22.049Z,94773
2023-01-04T21:00:48.132Z,94789
2023-01-04T21:04:13.533Z,94784
2023-01-04T21:07:38.887Z,94788
2023-01-04T21:11:04.203Z,94786
2023-01-04T21:14:29.525Z,94785
2023-01-04T21:17:54.927Z,94758
2023-01-04T21:21:20.201Z,94754
2023-01-04T21:24:45.604Z,94753
2023-01-04T21:28:10.891Z,94770
2023-01-04T21:31:36.321Z,94758
2023-01-04T21:35:01.598Z,94764
2023-01-04T21:38:26.896Z,94761
2023-01-04T21:41:52.356Z,94736
2023-01-04T21:45:17.489Z,94748
2023-01-04T21:48:42.802Z,94747
2023-01-04T21:52:08.136Z,94747
2023-01-04T21:55:34.995Z,94757
2023-01-04T21:58:59.552Z,94749
2023-01-04T22:02:24.994Z,94754
2023-01-04T22:05:50.264Z,94765
2023-01-04T22:09:15.546Z,94750
2023-01-04T22:12:40.780Z,94756
2023-01-04T22:16:06.219Z,94769
2023-01-04T22:19:31.428Z,94756
2023-01-04T22:22:56.789Z,94758
2023-01-04T22:26:22.088Z,94754
2023-01-04T22:29:47.396Z,94767
2023-01-04T22:33:12.771Z,94759
2023-01-04T22:36:38.121Z,94758
2023-01-04T22:40:03.391Z,94760
2023-01-04T22:43:28.773Z,94767
2023-01-04T22:46:54.221Z,94761
2023-01-04T22:50:19.533Z,94760
2023-01-04T22:53:44.895Z,94743
2023-01-04T22:57:10.264Z,94758
2023-01-04T23:00:35.632Z,94761
2023-01-04T23:04:01.059Z,94757
2023-01-04T23:07:26.301Z,94747
2023-01-04T23:10:51.652Z,94755
2023-01-04T23:14:17.046Z,94761
2023-01-04T23:17:42.317Z,94751
2023-01-04T23:21:07.589Z,94762
2023-01-04T23:24:32.918Z,94771
2023-01-04T23:27:58.186Z,94776
2023-01-04T23:31:23.584Z,94784
2023-01-04T23:34:48.900Z,94772
2023-01-04T23:38:14.173Z,94763
2023-01-04T23:41:39.518Z,94752
2023-01-04T23:45:04.978Z,94753
2023-01-04T23:48:28.747Z,94760
2023-01-04T23:51:54.045Z,94755
2023-01-04T23:55:19.456Z,94751
2023-01-04T23:58:44.761Z,94750
